Time;durP1;ratioP1;P1;durP2;ratioP2;P2;SDS_P1;SDS_P2;PMS_P1;PMS_P2;Temp;Humidity;BMP_temperature;BMP_pressure;BME280_temperature;BME280_humidity;BME280_pressure;Samples;Min_cycle;Max_cycle;Signal;HPM_P1;HPM_P2
2022/03/02 00:01:16;;;;;;;5.00;3.50;;;;;;;19.36;38.61;101579.22;102746;1326;62038;-81
2022/03/02 00:04:20;;;;;;;5.00;3.70;;;;;;;19.36;38.54;101575.13;102716;1326;72894;-83
2022/03/02 00:07:25;;;;;;;;;;;;;;;;;;;;;
2022/03/02 00:10:15;;;;;;;4.70;3.30;;;;;;;19.36;38.58;101572.45;102432;1332;61326;-83
2022/03/02 00:13:24;;;;;;;4.10;3.00;;;;;;;19.36;38.59;101569.58;102413;1332;61807;-82
2022/03/02 00:16:30;;;;;;;4.20;2.90;;;;;;;19.36;38.58;101568.30;102736;1329;72856;-84
2022/03/02 00:19:15;;;;;;;4.70;3.00;;;;;;;19.37;38.66;101562.74;102750;1326;75011;-82
2022/03/02 00:22:18;;;;;;;4.60;3.30;;;;;;;19.37;38.63;101563.28;102719;1326;61278;-84
2022/03/02 00:25:14;;;;;;;4.50;3.20;;;;;;;19.37;38.56;101558.65;102767;1326;61210;-82
2022/03/02 00:28:42;;;;;;;4.40;3.00;;;;;;;19.37;38.53;101555.62;102426;1332;71628;-83
2022/03/02 00:31:26;;;;;;;;;;;;;;;;;;;;;
2022/03/02 00:34:05;;;;;;;3.90;3.00;;;;;;;19.38;38.62;101549.32;102467;1332;61561;-83
2022/03/02 00:37:28;;;;;;;4.50;3.20;;;;;;;19.37;38.57;101543.09;102369;1335;61273;-82
2022/03/02 00:40:35;;;;;;;5.30;3.00;;;;;;;19.38;38.59;101537.16;102500;1332;72915;-83
2022/03/02 00:43:11;;;;;;;4.80;3.40;;;;;;;19.38;38.63;101538.77;102495;1332;74819;-82
2022/03/02 00:46:26;;;;;;;;;;;;;;;;;;;;;
2022/03/02 00:49:26;;;;;;;;;;;;;;;;;;;;;
2022/03/02 00:52:22;;;;;;;4.00;3.00;;;;;;;19.39;38.60;101531.23;102090;1335;74673;-82
2022/03/02 00:55:14;;;;;;;4.30;3.00;;;;;;;19.39;38.64;101526.59;102091;1335;75087;-81
2022/03/02 00:57:48;;;;;;;4.10;3.00;;;;;;;19.39;38.62;101522.49;102116;1335;61548;-82
2022/03/02 01:00:25;;;;;;;4.60;2.70;;;;;;;19.40;38.64;101519.77;102097;1335;61356;-81
2022/03/02 01:03:11;;;;;;;5.10;3.00;;;;;;;19.40;38.64;101520.63;102063;1335;73645;-84
2022/03/02 01:06:10;;;;;;;;;;;;;;;;;;;;;
2022/03/02 01:09:07;;;;;;;4.30;2.90;;;;;;;19.40;38.53;101513.50;102561;1329;61287;-84
2022/03/02 01:11:56;;;;;;;4.90;3.00;;;;;;;19.40;38.53;101507.23;102769;1328;61864;-83
2022/03/02 01:14:52;;;;;;;4.40;2.90;;;;;;;19.40;38.58;101503.69;102926;1323;73923;-86
2022/03/02 01:17:48;;;;;;;4.80;2.70;;;;;;;19.40;38.45;101500.64;103294;1323;74797;-83
2022/03/02 01:20:29;;;;;;;4.50;2.90;;;;;;;19.40;38.67;101498.32;102998;1324;61214;-85
2022/03/02 01:23:35;;;;;;;4.30;3.00;;;;;;;19.41;38.59;101491.88;103257;1321;61162;-83
2022/03/02 01:26:37;;;;;;;;;;;;;;;;;;;;;
2022/03/02 01:29:09;;;;;;;4.20;3.00;;;;;;;19.41;38.54;101481.69;103286;1323;74803;-84
2022/03/02 01:32:16;;;;;;;4.50;2.60;;;;;;;19.41;38.50;101476.67;103202;1324;61226;-82
2022/03/02 01:35:11;;;;;;;;;;;;;;;;;;;;;
2022/03/02 01:37:57;;;;;;;4.40;2.80;;;;;;;19.41;38.57;101473.80;103234;1324;72832;-84
2022/03/02 01:40:43;;;;;;;4.20;2.90;;;;;;;19.41;38.57;101474.50;103263;1323;75169;-79
2022/03/02 01:43:46;;;;;;;4.40;2.80;;;;;;;19.41;38.65;101473.79;102707;1327;61642;-88
2022/03/02 01:46:38;;;;;;;4.20;2.90;;;;;;;19.41;38.43;101466.84;102877;1326;63079;-84
2022/03/02 01:49:33;;;;;;;4.10;2.80;;;;;;;19.42;38.55;101464.85;102990;1324;72090;-83
2022/03/02 01:52:10;;;;;;;4.00;2.90;;;;;;;19.42;38.63;101463.39;103008;1324;75060;-85
2022/03/02 01:54:48;;;;;;;4.50;2.90;;;;;;;19.43;38.52;101461.23;102953;1323;61620;-84
2022/03/02 01:57:45;;;;;;;4.80;3.00;;;;;;;19.43;38.61;101460.16;103228;1321;62073;-87
2022/03/02 02:00:22;;;;;;;;;;;;;;;19.42;38.69;101454.45;103617;1320;73242;-83
2022/03/02 02:03:21;;;;;;;4.30;3.10;;;;;;;19.40;38.69;101454.06;103583;1319;76185;-83
2022/03/02 02:06:37;;;;;;;;;;;;;;;;;;;;;
2022/03/02 02:09:54;;;;;;;4.50;3.00;;;;;;;19.39;38.67;101448.05;103507;1320;61463;-85
2022/03/02 02:12:36;;;;;;;4.10;3.00;;;;;;;19.40;38.67;101449.07;103473;1319;73535;-83
2022/03/02 02:15:28;;;;;;;4.50;3.20;;;;;;;19.40;38.53;101447.27;103313;1320;74857;-85
2022/03/02 02:18:25;;;;;;;4.30;3.30;;;;;;;19.40;38.58;101442.80;103300;1320;61132;-82
2022/03/02 02:21:11;;;;;;;3.90;3.00;;;;;;;19.41;38.57;101444.35;103914;1315;62076;-81
2022/03/02 02:24:14;;;;;;;4.00;3.00;;;;;;;19.42;38.62;101441.98;104096;1315;74161;-85
2022/03/02 02:27:06;;;;;;;;;;;;;;;;;;;;;
2022/03/02 02:30:11;;;;;;;4.90;3.20;;;;;;;19.43;38.45;101438.38;104308;1315;61588;-84
2022/03/02 02:32:57;;;;;;;4.40;3.20;;;;;;;19.43;38.44;101436.94;104278;1314;61842;-82
2022/03/02 02:35:45;;;;;;;4.40;3.00;;;;;;;19.43;38.40;101430.30;104214;1315;73913;-81
2022/03/02 02:38:16;;;;;;;4.60;3.20;;;;;;;19.45;38.58;101427.39;104158;1315;76071;-83
2022/03/02 02:41:09;;;;;;;4.80;3.50;;;;;;;19.44;38.44;101424.73;104218;1314;61288;-84
2022/03/02 02:43:53;;;;;;;4.70;3.10;;;;;;;19.44;38.49;101417.95;104375;1307;61176;-79
2022/03/02 02:46:32;;;;;;;4.20;3.20;;;;;;;19.45;38.37;101417.55;104635;1308;72898;-84
2022/03/02 02:49:27;;;;;;;4.60;3.20;;;;;;;19.46;38.52;101418.05;104508;1309;75911;-82
2022/03/02 02:52:13;;;;;;;3.90;3.00;;;;;;;19.46;38.43;101415.35;104554;1309;61192;-83
2022/03/02 02:54:52;;;;;;;4.10;2.80;;;;;;;19.46;38.56;101411.61;104558;1309;61428;-84
2022/03/02 02:57:41;;;;;;;4.40;3.00;;;;;;;19.47;38.50;101409.79;104525;1308;74002;-83
2022/03/02 03:00:20;;;;;;;4.90;3.10;;;;;;;19.47;38.37;101406.19;104642;1309;77956;-84
2022/03/02 03:03:26;;;;;;;4.40;3.50;;;;;;;19.47;38.62;101398.01;104523;1309;61282;-83
2022/03/02 03:06:19;;;;;;;4.00;2.90;;;;;;;19.46;38.44;101394.28;104527;1309;61801;-85
2022/03/02 03:08:51;;;;;;;4.50;3.10;;;;;;;19.47;38.51;101393.19;104579;1309;73749;-85
2022/03/02 03:11:54;;;;;;;4.80;3.30;;;;;;;19.47;38.55;101386.20;104506;1309;75645;-82
2022/03/02 03:14:45;;;;;;;4.50;3.20;;;;;;;19.47;38.53;101381.56;104665;1307;61297;-78
2022/03/02 03:17:36;;;;;;;4.40;3.20;;;;;;;19.47;38.38;101381.38;104498;1308;61185;-84
2022/03/02 03:20:44;;;;;;;4.60;3.10;;;;;;;19.48;38.60;101380.83;104498;1308;73828;-80
2022/03/02 03:23:30;;;;;;;4.30;3.20;;;;;;;19.48;38.53;101382.41;104112;1313;74861;-88
2022/03/02 03:26:27;;;;;;;4.90;3.30;;;;;;;19.49;38.46;101378.80;103090;1323;61104;-83
2022/03/02 03:29:13;;;;;;;5.00;3.60;;;;;;;19.49;38.55;101376.10;103204;1323;61504;-82
2022/03/02 03:32:09;;;;;;;;;;;;;;;;;;;;;
2022/03/02 03:35:06;;;;;;;4.50;3.30;;;;;;;19.49;38.45;101368.05;103228;1322;74873;-84
2022/03/02 03:38:02;;;;;;;4.20;3.10;;;;;;;19.49;38.42;101359.30;102707;1326;61198;-80
2022/03/02 03:41:09;;;;;;;5.10;3.60;;;;;;;19.49;38.49;101360.05;102848;1326;61518;-87
2022/03/02 03:43:54;;;;;;;4.60;3.20;;;;;;;19.50;38.53;101357.50;102463;1332;73797;-88
2022/03/02 03:46:38;;;;;;;4.40;3.20;;;;;;;19.50;38.49;101360.50;102536;1331;74742;-84
2022/03/02 03:49:23;;;;;;;;;;;;;;;;;;;;;
2022/03/02 03:52:33;;;;;;;6.00;3.20;;;;;;;19.50;38.53;101354.45;102399;1332;61427;-83
2022/03/02 03:55:35;;;;;;;5.30;3.30;;;;;;;19.50;38.53;101353.53;102053;1335;74250;-83
2022/03/02 03:58:23;;;;;;;4.90;3.70;;;;;;;19.51;38.55;101351.02;101812;1341;75765;-83
2022/03/02 04:00:55;;;;;;;4.70;3.50;;;;;;;19.51;38.48;101345.45;101772;1341;61237;-83
2022/03/02 04:03:47;;;;;;;4.70;3.30;;;;;;;19.51;38.56;101345.45;102042;1335;61173;-83
2022/03/02 04:06:21;;;;;;;5.20;3.80;;;;;;;19.51;38.48;101341.35;102243;1335;74421;-85
2022/03/02 04:09:27;;;;;;;4.70;3.30;;;;;;;19.52;38.50;101336.50;101966;1335;75356;-86
2022/03/02 04:12:17;;;;;;;;;;;;;;;;;;;;;
2022/03/02 04:15:12;;;;;;;4.30;3.20;;;;;;;19.52;38.47;101334.16;102238;1332;61324;-85
2022/03/02 04:18:18;;;;;;;5.20;3.60;;;;;;;19.52;38.46;101327.54;101852;1341;71595;-84
2022/03/02 04:21:16;;;;;;;;;;;;;;;;;;;;;
2022/03/02 04:24:23;;;;;;;5.10;3.60;;;;;;;19.52;38.50;101325.91;101752;1344;61591;-81
2022/03/02 04:27:09;;;;;;;4.40;3.30;;;;;;;19.52;38.51;101322.20;101549;1347;61510;-86
2022/03/02 04:30:17;;;;;;;;;;;;;;;;;;;;;
2022/03/02 04:33:05;;;;;;;4.80;3.30;;;;;;;19.53;38.53;101323.59;100469;1358;75097;-84
2022/03/02 04:35:45;;;;;;;4.50;3.30;;;;;;;19.53;38.53;101323.38;100856;1354;61236;-82
2022/03/02 04:38:54;;;;;;;5.70;3.20;;;;;;;19.54;38.55;101328.53;101076;1355;61214;-83
2022/03/02 04:41:52;;;;;;;5.20;3.50;;;;;;;19.54;38.53;101326.39;101067;1354;73973;-81
2022/03/02 04:44:50;;;;;;;5.00;3.30;;;;;;;19.54;38.38;101323.15;101137;1355;75138;-87
2022/03/02 04:47:38;;;;;;;4.60;3.40;;;;;;;19.54;38.35;101322.63;101143;1354;61368;-86
2022/03/02 04:50:19;;;;;;;;;;;;;;;;;;;;;
2022/03/02 04:53:03;;;;;;;5.10;3.80;;;;;;;19.55;38.47;101324.54;101130;1355;72979;-81
2022/03/02 04:56:01;;;;;;;;;;;;;;;;;;;;;
2022/03/02 04:58:48;;;;;;;4.40;3.30;;;;;;;19.55;38.47;101330.07;101712;1343;61660;-83
2022/03/02 05:01:27;;;;;;;4.60;3.30;;;;;;;19.55;38.44;101331.85;101887;1337;61248;-83
2022/03/02 05:04:22;;;;;;;4.90;3.50;;;;;;;19.55;38.45;101333.64;102185;1334;71438;-84
2022/03/02 05:07:04;;;;;;;5.60;3.70;;;;;;;19.55;38.47;101334.00;102477;1326;73732;-84
2022/03/02 05:09:48;;;;;;;5.60;3.70;;;;;;;19.55;38.48;101336.84;103104;1316;61380;-85
2022/03/02 05:12:48;;;;;;;5.30;3.80;;;;;;;19.56;38.32;101335.52;103845;1316;61547;-84
2022/03/02 05:15:40;;;;;;;5.50;4.00;;;;;;;19.55;38.08;101333.61;103703;1317;72943;-86
2022/03/02 05:18:26;;;;;;;5.00;3.70;;;;;;;19.53;37.73;101330.68;102996;1325;74890;-85
2022/03/02 05:21:21;;;;;;;5.30;4.00;;;;;;;19.52;37.59;101324.87;102858;1325;61296;-85
2022/03/02 05:24:11;;;;;;;6.20;4.50;;;;;;;19.52;37.49;101327.91;102978;1325;61566;-82
2022/03/02 05:27:07;;;;;;;7.70;5.20;;;;;;;19.50;37.37;101326.02;102938;1325;71719;-88
2022/03/02 05:30:02;;;;;;;6.10;4.80;;;;;;;19.48;37.28;101329.76;103022;1325;75315;-85
2022/03/02 05:32:50;;;;;;;7.20;4.90;;;;;;;19.45;37.03;101328.65;102678;1325;61368;-81
2022/03/02 05:35:26;;;;;;;7.20;4.70;;;;;;;19.44;36.87;101331.73;102634;1326;61068;-82
2022/03/02 05:38:22;;;;;;;8.10;5.10;;;;;;;19.43;36.58;101333.59;102609;1325;74287;-82
2022/03/02 05:40:51;;;;;;;7.40;5.80;;;;;;;19.39;36.30;101330.05;102447;1325;74958;-82
2022/03/02 05:43:19;;;;;;;8.00;6.60;;;;;;;19.34;36.14;101328.73;102372;1325;61287;-81
2022/03/02 05:45:45;;;;;;;8.70;6.50;;;;;;;19.29;35.91;101328.65;102321;1326;61521;-80
2022/03/02 05:48:10;;;;;;;10.60;6.30;;;;;;;19.24;35.75;101325.52;102272;1325;61346;-80
2022/03/02 05:50:36;;;;;;;9.40;6.50;;;;;;;19.19;35.56;101327.92;102208;1325;61300;-81
2022/03/02 05:53:02;;;;;;;9.90;6.40;;;;;;;19.15;35.50;101325.47;102407;1325;61396;-81
2022/03/02 05:55:31;;;;;;;12.10;6.90;;;;;;;19.11;35.37;101323.90;102518;1317;61445;-81
2022/03/02 05:58:00;;;;;;;21.00;6.80;;;;;;;19.06;35.37;101318.83;102622;1317;61355;-82
2022/03/02 06:00:26;;;;;;;10.00;6.70;;;;;;;19.02;35.33;101327.42;102709;1317;73347;-81
2022/03/02 06:02:52;;;;;;;17.00;8.10;;;;;;;18.98;35.45;101323.96;102745;1317;61300;-79
2022/03/02 06:05:20;;;;;;;13.30;8.00;;;;;;;18.92;35.59;101322.13;102779;1317;61323;-79
2022/03/02 06:07:47;;;;;;;16.50;8.70;;;;;;;18.88;35.52;101311.95;102941;1317;61324;-79
2022/03/02 06:10:14;;;;;;;11.60;8.30;;;;;;;18.86;35.52;101313.61;103085;1318;72895;-80
2022/03/02 06:12:40;;;;;;;13.60;9.00;;;;;;;18.85;35.37;101310.45;103322;1317;75404;-82
2022/03/02 06:15:12;;;;;;;11.70;9.30;;;;;;;18.86;35.34;101311.33;103213;1317;61421;-84
2022/03/02 06:17:39;;;;;;;15.00;8.80;;;;;;;18.87;35.20;101310.94;103462;1316;61884;-80
2022/03/02 06:20:06;;;;;;;13.20;8.80;;;;;;;18.89;35.23;101311.36;103319;1317;73861;-79
2022/03/02 06:22:35;;;;;;;13.50;9.20;;;;;;;18.92;35.06;101309.97;102905;1319;74649;-81
2022/03/02 06:25:01;;;;;;;13.00;8.70;;;;;;;18.94;34.96;101306.48;102969;1317;61299;-82
2022/03/02 06:27:27;;;;;;;14.60;8.90;;;;;;;18.95;34.92;101302.86;102963;1317;61342;-80
2022/03/02 06:29:53;;;;;;;11.00;8.50;;;;;;;18.98;34.94;101300.21;103080;1317;61448;-80
2022/03/02 06:32:21;;;;;;;10.80;7.90;;;;;;;19.01;34.73;101301.84;103076;1317;74178;-80
2022/03/02 06:34:47;;;;;;;9.70;7.30;;;;;;;19.03;34.64;101301.19;103126;1317;61336;-81
2022/03/02 06:37:38;;;;;;;11.40;7.20;;;;;;;19.06;34.57;101299.20;103176;1317;61789;-83
2022/03/02 06:40:07;;;;;;;11.30;8.00;;;;;;;19.09;34.60;101299.95;102513;1322;74010;-81
2022/03/02 06:42:48;;;;;;;10.00;7.40;;;;;;;19.12;34.74;101301.21;102319;1323;75797;-79
2022/03/02 06:45:27;;;;;;;14.00;7.00;;;;;;;19.16;34.75;101304.35;102603;1323;61421;-81
2022/03/02 06:47:57;;;;;;;12.70;7.90;;;;;;;19.19;34.86;101304.90;102229;1323;61176;-80
2022/03/02 06:50:25;;;;;;;11.60;7.00;;;;;;;19.23;34.84;101302.20;102397;1323;72928;-81
2022/03/02 06:52:54;;;;;;;11.90;7.10;;;;;;;19.25;34.95;101306.72;102383;1323;75603;-80
2022/03/02 06:55:20;;;;;;;11.10;7.60;;;;;;;19.24;35.06;101307.48;103780;1314;60249;-80
2022/03/02 06:57:53;;;;;;;12.30;8.30;;;;;;;19.21;35.11;101308.55;103958;1315;61342;-82
2022/03/02 07:00:20;;;;;;;15.30;7.70;;;;;;;19.19;35.25;101307.23;103212;1315;71982;-81
2022/03/02 07:03:05;;;;;;;12.30;7.40;;;;;;;19.18;35.61;101305.70;103023;1315;75122;-80
2022/03/02 07:05:31;;;;;;;17.50;8.90;;;;;;;19.17;35.94;101304.33;103057;1314;61564;-82
2022/03/02 07:08:01;;;;;;;24.00;9.90;;;;;;;19.16;35.75;101303.14;103073;1314;61290;-81
2022/03/02 07:10:27;;;;;;;18.10;8.80;;;;;;;19.16;35.72;101302.07;103186;1314;71848;-80
2022/03/02 07:12:53;;;;;;;25.00;8.70;;;;;;;19.17;35.79;101304.30;103201;1314;61293;-80
2022/03/02 07:15:18;;;;;;;23.00;8.70;;;;;;;19.20;35.70;101300.58;103164;1315;61274;-83
2022/03/02 07:17:44;;;;;;;16.80;7.70;;;;;;;19.23;35.72;101298.81;103616;1309;61542;-81
2022/03/02 07:20:11;;;;;;;26.10;8.00;;;;;;;19.27;35.57;101297.90;103837;1308;61314;-81
2022/03/02 07:22:42;;;;;;;14.30;7.70;;;;;;;19.30;35.76;101293.65;103752;1309;61397;-80
2022/03/02 07:25:19;;;;;;;16.30;7.70;;;;;;;19.32;35.76;101294.40;103886;1307;62219;-79
2022/03/02 07:27:45;;;;;;;16.10;7.00;;;;;;;19.35;35.70;101290.86;103409;1309;63480;-80
2022/03/02 07:30:12;;;;;;;17.20;7.30;;;;;;;19.36;35.86;101288.27;103878;1307;61313;-81
2022/03/02 07:32:41;;;;;;;18.40;8.00;;;;;;;19.38;35.80;101283.87;103637;1309;61571;-81
2022/03/02 07:35:07;;;;;;;17.40;6.90;;;;;;;19.40;35.93;101283.25;103829;1309;61231;-81
2022/03/02 07:37:56;;;;;;;11.70;7.10;;;;;;;19.42;36.03;101276.52;103530;1308;61351;-81
2022/03/02 07:40:21;;;;;;;;;;;;;;;19.46;36.00;101275.94;102937;1316;73706;-81
2022/03/02 07:42:47;;;;;;;12.10;6.40;;;;;;;19.45;36.18;101271.04;103225;1316;63548;-82
2022/03/02 07:45:16;;;;;;;11.80;6.40;;;;;;;19.47;36.17;101272.70;102980;1317;61376;-81
2022/03/02 07:47:42;;;;;;;;;;;;;;;19.49;36.28;101273.27;103157;1314;61382;-80
2022/03/02 07:50:10;;;;;;;14.00;6.50;;;;;;;19.48;36.38;101272.95;103261;1314;61316;-81
2022/03/02 07:52:37;;;;;;;17.30;8.40;;;;;;;19.52;36.52;101273.66;102529;1317;75918;-85
2022/03/02 07:55:09;;;;;;;19.20;8.20;;;;;;;19.48;36.55;101274.73;103003;1314;61157;-80
2022/03/02 07:57:39;;;;;;;12.40;8.40;;;;;;;19.44;36.58;101273.20;103049;1316;61550;-80
2022/03/02 08:00:05;;;;;;;17.70;8.40;;;;;;;19.41;36.60;101271.73;102975;1314;72004;-80
2022/03/02 08:02:32;;;;;;;12.30;7.90;;;;;;;19.42;36.49;101269.74;103196;1314;74734;-79
2022/03/02 08:04:58;;;;;;;25.10;9.10;;;;;;;19.43;36.82;101273.61;103091;1316;61426;-80
2022/03/02 08:07:24;;;;;;;16.80;7.80;;;;;;;19.44;36.66;101274.63;102963;1315;61686;-80
2022/03/02 08:09:52;;;;;;;16.20;7.40;;;;;;;19.46;36.83;101271.48;103235;1315;61329;-80
2022/03/02 08:12:20;;;;;;;16.60;7.70;;;;;;;19.48;36.87;101263.70;103155;1314;75675;-80
2022/03/02 08:14:45;;;;;;;14.50;7.00;;;;;;;19.51;37.10;101260.49;103500;1315;61061;-79
2022/03/02 08:17:11;;;;;;;17.90;7.00;;;;;;;19.54;37.05;101257.84;103375;1309;61370;-79
2022/03/02 08:19:40;;;;;;;15.50;7.40;;;;;;;19.57;37.04;101260.86;103816;1309;61237;-82
2022/03/02 08:22:10;;;;;;;15.10;7.10;;;;;;;19.59;36.97;101258.73;103855;1308;74612;-80
2022/03/02 08:24:42;;;;;;;17.30;7.40;;;;;;;19.61;36.87;101258.66;103818;1307;61199;-80
2022/03/02 08:27:13;;;;;;;12.00;7.40;;;;;;;19.63;37.25;101253.76;103668;1308;62833;-83
2022/03/02 08:29:41;;;;;;;20.40;7.60;;;;;;;19.64;37.32;101250.27;104285;1309;71821;-82
2022/03/02 08:32:08;;;;;;;16.40;7.80;;;;;;;19.66;37.29;101250.89;103750;1308;75751;-82
2022/03/02 08:34:33;;;;;;;15.40;7.10;;;;;;;19.68;37.23;101255.08;103861;1309;61414;-82
2022/03/02 08:37:01;;;;;;;21.50;8.00;;;;;;;19.69;37.12;101251.58;103863;1309;61275;-81
2022/03/02 08:39:27;;;;;;;13.20;7.50;;;;;;;19.71;37.12;101252.23;104145;1308;72851;-81
2022/03/02 08:41:53;;;;;;;11.50;7.10;;;;;;;19.71;37.20;101250.38;103781;1308;61360;-81
2022/03/02 08:44:19;;;;;;;12.90;7.90;;;;;;;19.72;37.16;101247.10;103694;1310;61766;-81
2022/03/02 08:46:46;;;;;;;15.90;8.70;;;;;;;19.74;37.00;101243.99;103653;1309;61301;-81
2022/03/02 08:49:16;;;;;;;13.70;8.00;;;;;;;19.75;36.94;101243.38;103771;1309;61353;-82
2022/03/02 08:51:42;;;;;;;12.10;7.60;;;;;;;19.75;36.83;101239.45;103624;1309;76875;-80
2022/03/02 08:54:11;;;;;;;15.40;8.10;;;;;;;19.75;36.71;101232.67;103675;1308;61402;-81
2022/03/02 08:56:39;;;;;;;;;;;;;;;19.75;36.73;101235.16;103788;1309;61461;-80
2022/03/02 08:59:32;;;;;;;20.50;7.80;;;;;;;19.73;36.76;101232.98;104808;1306;73719;-80
2022/03/02 09:01:57;;;;;;;22.00;8.40;;;;;;;19.74;36.72;101226.81;103064;1314;74856;-80
2022/03/02 09:04:23;;;;;;;17.90;7.80;;;;;;;19.74;37.15;101227.56;102931;1315;61396;-81
2022/03/02 09:06:49;;;;;;;27.40;8.40;;;;;;;19.74;37.30;101221.11;102975;1314;63094;-81
2022/03/02 09:09:17;;;;;;;19.20;9.00;;;;;;;19.75;37.31;101227.14;102996;1316;63654;-82
2022/03/02 09:11:44;;;;;;;16.30;8.20;;;;;;;19.77;37.52;101222.35;103569;1314;61930;-80
2022/03/02 09:14:11;;;;;;;18.20;7.60;;;;;;;19.80;37.69;101220.09;102870;1317;61337;-79
2022/03/02 09:16:39;;;;;;;16.20;8.10;;;;;;;19.82;37.84;101220.89;103034;1316;61680;-80
2022/03/02 09:19:10;;;;;;;21.70;8.60;;;;;;;19.84;38.07;101213.95;103083;1317;72871;-84
2022/03/02 09:21:36;;;;;;;22.20;8.90;;;;;;;19.88;37.97;101217.51;102895;1314;76010;-79
2022/03/02 09:24:02;;;;;;;14.80;9.00;;;;;;;19.88;38.09;101217.46;103201;1315;62081;-79
2022/03/02 09:26:28;;;;;;;17.50;9.90;;;;;;;19.86;37.86;101214.02;102910;1315;61289;-79
2022/03/02 09:28:53;;;;;;;17.30;9.50;;;;;;;19.83;37.87;101208.67;102899;1315;61314;-82
2022/03/02 09:31:21;;;;;;;16.20;9.60;;;;;;;19.83;37.73;101207.80;103073;1315;61440;-80
2022/03/02 09:33:48;;;;;;;18.00;9.90;;;;;;;19.82;37.53;101203.16;103052;1315;61413;-79
2022/03/02 09:36:19;;;;;;;20.10;9.60;;;;;;;19.83;37.32;101204.19;102987;1316;61375;-80
2022/03/02 09:38:47;;;;;;;17.20;8.70;;;;;;;19.83;37.36;101200.79;103227;1309;73822;-79
2022/03/02 09:41:17;;;;;;;18.20;8.30;;;;;;;19.84;37.39;101203.58;103861;1308;74853;-80
2022/03/02 09:43:46;;;;;;;18.80;9.20;;;;;;;19.85;37.33;101204.23;104587;1307;61244;-79
2022/03/02 09:46:12;;;;;;;13.10;8.20;;;;;;;19.87;37.37;101200.92;103872;1308;61314;-82
2022/03/02 09:48:47;;;;;;;16.70;8.20;;;;;;;19.88;37.43;101196.03;103617;1309;63798;-80
2022/03/02 09:51:22;;;;;;;14.20;9.80;;;;;;;19.90;37.57;101198.07;103513;1309;74712;-80
2022/03/02 09:53:54;;;;;;;18.60;11.60;;;;;;;19.87;37.38;101196.80;103647;1309;60343;-81
2022/03/02 09:56:22;;;;;;;25.50;12.80;;;;;;;19.75;37.13;101192.34;103595;1309;61310;-80
2022/03/02 09:58:50;;;;;;;17.50;12.70;;;;;;;19.62;37.04;101197.02;103550;1308;72854;-81
2022/03/02 10:01:16;;;;;;;20.90;13.60;;;;;;;19.52;36.85;101195.10;103570;1309;75544;-81
2022/03/02 10:03:46;;;;;;;18.10;11.90;;;;;;;19.44;36.86;101194.48;103433;1308;61831;-80
2022/03/02 10:06:13;;;;;;;19.30;12.30;;;;;;;19.41;36.96;101193.38;105046;1308;60567;-80
2022/03/02 10:08:49;;;;;;;18.90;12.10;;;;;;;19.40;36.85;101190.06;105107;1309;72750;-80
2022/03/02 10:11:15;;;;;;;17.70;12.00;;;;;;;19.40;36.89;101183.83;105056;1308;76042;-80
2022/03/02 10:13:41;;;;;;;16.20;11.10;;;;;;;19.40;36.85;101181.30;105082;1307;59750;-79
2022/03/02 10:16:08;;;;;;;20.30;12.20;;;;;;;19.43;36.82;101178.83;103600;1309;61339;-80
2022/03/02 10:18:35;;;;;;;20.00;11.60;;;;;;;19.46;36.88;101172.05;103779;1309;73794;-80
2022/03/02 10:21:03;;;;;;;18.80;11.90;;;;;;;19.48;36.87;101168.76;103731;1309;75105;-78
2022/03/02 10:23:41;;;;;;;15.70;11.00;;;;;;;19.48;36.78;101160.89;103731;1309;61338;-80
2022/03/02 10:26:15;;;;;;;16.90;11.10;;;;;;;19.46;36.66;101159.39;103755;1309;61272;-80
2022/03/02 10:28:52;;;;;;;18.50;11.10;;;;;;;19.44;36.66;101157.52;103892;1307;72957;-80
2022/03/02 10:31:45;;;;;;;18.80;11.20;;;;;;;19.44;36.60;101153.59;103978;1306;75109;-81
2022/03/02 10:34:27;;;;;;;16.80;10.10;;;;;;;19.45;36.57;101144.64;103767;1309;61317;-79
2022/03/02 10:37:03;;;;;;;14.80;10.20;;;;;;;19.48;36.73;101138.73;103799;1307;61463;-81
2022/03/02 10:39:51;;;;;;;15.50;9.70;;;;;;;19.52;36.74;101141.91;103741;1309;73087;-80
2022/03/02 10:42:30;;;;;;;12.80;9.90;;;;;;;19.54;36.72;101132.30;103772;1309;76216;-80
2022/03/02 10:45:29;;;;;;;21.10;9.80;;;;;;;19.57;36.89;101130.48;103760;1309;61185;-80
2022/03/02 10:48:09;;;;;;;16.00;10.00;;;;;;;19.60;36.86;101125.70;103076;1314;62393;-80
2022/03/02 10:50:35;;;;;;;;;;;;;;;19.63;37.09;101122.30;103173;1315;74791;-81
2022/03/02 10:53:03;;;;;;;11.70;9.20;;;;;;;19.62;36.91;101116.31;104228;1316;60720;-80
2022/03/02 10:55:56;;;;;;;20.10;11.30;;;;;;;19.57;36.69;101113.34;102721;1317;61351;-80
2022/03/02 10:58:21;;;;;;;17.60;10.90;;;;;;;19.45;36.42;101103.55;102189;1322;61663;-81
2022/03/02 11:00:49;;;;;;;18.90;10.90;;;;;;;19.38;36.49;101104.33;101842;1323;61454;-79
2022/03/02 11:03:14;;;;;;;17.00;10.90;;;;;;;19.32;36.41;101096.30;102205;1322;74697;-80
2022/03/02 11:05:40;;;;;;;17.60;10.10;;;;;;;19.28;36.23;101091.18;102350;1323;61416;-80
2022/03/02 11:08:08;;;;;;;14.50;9.90;;;;;;;19.25;36.11;101083.48;102354;1322;61756;-80
2022/03/02 11:10:40;;;;;;;14.80;9.40;;;;;;;19.24;35.97;101074.79;102316;1323;61271;-81
2022/03/02 11:13:12;;;;;;;13.00;9.40;;;;;;;19.21;35.91;101071.58;102199;1323;77335;-80
2022/03/02 11:15:46;;;;;;;13.50;9.90;;;;;;;19.20;35.71;101066.67;103608;1323;61617;-79
2022/03/02 11:18:16;;;;;;;13.00;9.30;;;;;;;19.19;35.67;101064.58;103734;1322;60813;-79
2022/03/02 11:21:04;;;;;;;17.00;9.50;;;;;;;19.20;35.63;101063.08;103590;1323;74087;-79
2022/03/02 11:23:43;;;;;;;15.80;9.10;;;;;;;19.25;35.72;101062.80;103717;1323;76010;-79
2022/03/02 11:26:17;;;;;;;18.00;9.00;;;;;;;19.29;35.77;101057.92;104139;1316;62979;-80
2022/03/02 11:29:02;;;;;;;16.10;8.00;;;;;;;19.33;35.87;101052.89;103204;1317;61690;-79
2022/03/02 11:31:31;;;;;;;14.40;8.50;;;;;;;19.36;35.90;101050.90;102846;1319;73520;-81
2022/03/02 11:34:13;;;;;;;17.40;8.10;;;;;;;19.40;35.94;101043.20;103274;1315;74847;-79
2022/03/02 11:36:45;;;;;;;13.00;7.40;;;;;;;19.42;35.94;101036.81;103645;1309;61438;-80
2022/03/02 11:39:10;;;;;;;16.90;7.80;;;;;;;19.44;35.94;101029.93;105300;1306;60643;-79
2022/03/02 11:41:38;;;;;;;14.90;7.00;;;;;;;19.48;36.05;101025.42;104992;1306;59358;-82
2022/03/02 11:44:06;;;;;;;14.70;8.00;;;;;;;19.56;36.30;101026.52;104823;1307;76599;-79
2022/03/02 11:46:31;;;;;;;18.80;7.90;;;;;;;19.59;36.22;101023.43;105079;1307;61450;-79
2022/03/02 11:48:58;;;;;;;11.50;7.30;;;;;;;19.60;36.26;101017.33;105179;1308;59849;-79
2022/03/02 11:51:25;;;;;;;14.80;7.50;;;;;;;19.62;36.19;101013.45;105009;1309;59811;-81
2022/03/02 11:53:59;;;;;;;15.10;7.90;;;;;;;19.57;35.54;101006.46;104996;1307;75891;-80
2022/03/02 11:56:26;;;;;;;13.50;8.80;;;;;;;19.40;35.51;101004.10;105227;1306;60580;-80
2022/03/02 11:59:14;;;;;;;17.40;7.90;;;;;;;19.30;35.29;100998.48;105073;1309;61454;-80
2022/03/02 12:01:42;;;;;;;13.50;7.80;;;;;;;19.24;35.37;100993.45;105018;1310;73762;-80
2022/03/02 12:04:08;;;;;;;18.90;7.50;;;;;;;19.24;35.41;100994.48;105260;1306;74589;-80
2022/03/02 12:06:44;;;;;;;13.20;7.10;;;;;;;19.26;35.49;100990.66;105394;1306;59686;-80
2022/03/02 12:09:31;;;;;;;9.30;6.40;;;;;;;19.26;35.39;100987.80;103729;1309;62192;-80
2022/03/02 12:12:11;;;;;;;11.70;7.40;;;;;;;19.26;35.48;100984.23;103449;1310;73233;-80
2022/03/02 12:14:43;;;;;;;11.80;6.90;;;;;;;19.27;35.25;100979.20;103768;1308;74173;-82
2022/03/02 12:17:23;;;;;;;10.70;5.70;;;;;;;19.28;35.31;100978.80;103865;1309;61531;-80
2022/03/02 12:20:00;;;;;;;12.30;6.50;;;;;;;19.27;35.26;100977.39;103793;1309;61264;-80
2022/03/02 12:22:43;;;;;;;10.90;5.60;;;;;;;19.30;34.87;100974.36;103848;1309;72906;-80
2022/03/02 12:25:20;;;;;;;8.90;5.70;;;;;;;19.33;34.77;100974.39;103924;1307;74666;-80
2022/03/02 12:28:05;;;;;;;11.30;5.30;;;;;;;19.32;34.53;100966.93;103931;1306;61424;-80
2022/03/02 12:30:32;;;;;;;12.50;5.30;;;;;;;19.30;34.21;100962.38;103865;1307;61239;-83
2022/03/02 12:32:59;;;;;;;10.70;4.90;;;;;;;19.30;34.24;100959.91;103758;1309;72902;-80